KHFF/HFF METAR and TAF weather

Enter ICAO airport designator
Station Type Date Time Source
KHFF METAR 2019/12/11 12:01 UTC NOAA

KHFF 111201Z AUTO 04009KT 10SM BKN008 OVC055 06/05 A3032 RMK AO2 PRESRR SLP284 PWINO $


Station Type Date Time Source
KHFF Decoded METAR 2019/12/11 12:01 UTC NOAA

Mackall U. S. Army Airfield, NC, United States (KHFF) 35-02N 079-30W
Dec 11, 2019 - 07:01 AM EST / 2019.12.11 1201 UTC
Wind: from the NE (040 degrees) at 10 MPH (9 KT):0
Visibility: 10 mile(s):0
Sky conditions: overcast
Temperature: 42 F (6 C)
Dew Point: 41 F (5 C)
Relative Humidity: 93%
Pressure (altimeter): 30.32 in. Hg (1026 hPa)
Pressure tendency: rising rapidly
ob: KHFF 111201Z AUTO 04009KT 10SM BKN008 OVC055 06/05 A3032 RMK AO2 PRESRR SLP284 PWINO
cycle: 12

Station Type Date Time Source
KHFF TAF UTC NOAA

Error!

Example: see airport list